Time;durP1;ratioP1;P1;durP2;ratioP2;P2;SDS_P1;SDS_P2;PMS_P1;PMS_P2;Temp;Humidity;BMP_temperature;BMP_pressure;BME280_temperature;BME280_humidity;BME280_pressure;Samples;Min_cycle;Max_cycle;Signal;HPM_P1;HPM_P2
2023/05/19 00:01:59;;;;;;;9.33;4.70;;;;;;;;;;5012827;28;20552;-43
2023/05/19 00:04:25;;;;;;;7.63;4.40;;;;;;;;;;5012404;28;20957;-44
2023/05/19 00:06:53;;;;;;;8.30;4.67;;;;;;;;;;5012103;28;20439;-43
2023/05/19 00:09:19;;;;;;;5.13;4.30;;;;;;;;;;5012400;28;20407;-43
2023/05/19 00:11:45;;;;;;;6.70;5.77;;;;;;;;;;5011497;28;20411;-44
2023/05/19 00:14:11;;;;;;;9.03;5.63;;;;;;;;;;5011196;28;20781;-43
2023/05/19 00:16:37;;;;;;;8.30;5.63;;;;;;;;;;5011905;28;20514;-43
2023/05/19 00:19:04;;;;;;;9.07;5.53;;;;;;;;;;5012246;28;20419;-44
2023/05/19 00:21:30;;;;;;;6.23;5.57;;;;;;;;;;5012141;28;20481;-43
2023/05/19 00:23:57;;;;;;;10.73;5.10;;;;;;;;;;5012156;28;20495;-43
2023/05/19 00:26:23;;;;;;;6.20;5.03;;;;;;;;;;5011802;28;20888;-43
2023/05/19 00:28:49;;;;;;;5.97;4.73;;;;;;;;;;5011966;28;20754;-43
2023/05/19 00:31:15;;;;;;;9.50;5.30;;;;;;;;;;5012193;28;20805;-43
2023/05/19 00:33:42;;;;;;;6.83;5.33;;;;;;;;;;5011991;28;20424;-43
2023/05/19 00:36:08;;;;;;;9.03;5.10;;;;;;;;;;5011596;28;20938;-43
2023/05/19 00:38:35;;;;;;;5.80;4.90;;;;;;;;;;5010934;28;20517;-43
2023/05/19 00:41:01;;;;;;;9.80;5.87;;;;;;;;;;5011232;28;20466;-44
2023/05/19 00:43:28;;;;;;;11.53;6.00;;;;;;;;;;5011694;28;20510;-43
2023/05/19 00:45:54;;;;;;;9.20;5.60;;;;;;;;;;5011644;28;20439;-43
2023/05/19 00:48:21;;;;;;;10.90;4.70;;;;;;;;;;5011090;28;20969;-43
2023/05/19 00:50:47;;;;;;;5.80;5.20;;;;;;;;;;5011682;28;20408;-43
2023/05/19 00:53:14;;;;;;;7.03;4.67;;;;;;;;;;5012306;28;21164;-43
2023/05/19 00:55:40;;;;;;;5.40;4.80;;;;;;;;;;5011493;28;20532;-43
2023/05/19 00:58:09;;;;;;;11.23;5.03;;;;;;;;;;5011476;28;20465;-44
2023/05/19 01:00:35;;;;;;;6.50;5.13;;;;;;;;;;5011609;28;20480;-43
2023/05/19 01:03:02;;;;;;;5.03;4.53;;;;;;;;;;5011378;28;20502;-44
2023/05/19 01:05:28;;;;;;;6.47;5.40;;;;;;;;;;5010286;28;20423;-44
2023/05/19 01:07:55;;;;;;;6.17;5.33;;;;;;;;;;5010240;28;20927;-43
2023/05/19 01:10:21;;;;;;;12.33;4.77;;;;;;;;;;5011426;28;20403;-43
2023/05/19 01:12:47;;;;;;;13.10;5.13;;;;;;;;;;5011598;28;20446;-44
2023/05/19 01:15:14;;;;;;;6.53;5.10;;;;;;;;;;5011497;28;20517;-43
2023/05/19 01:17:53;;;;;;;6.13;5.47;;;;;;;;;;5011224;28;20807;-43
2023/05/19 01:20:21;;;;;;;4.70;3.90;;;;;;;;;;5011732;28;20513;-43
2023/05/19 01:22:56;;;;;;;7.13;5.03;;;;;;;;;;5011494;28;20422;-44
2023/05/19 01:25:22;;;;;;;10.57;5.80;;;;;;;;;;5011726;28;20472;-44
2023/05/19 01:27:54;;;;;;;10.20;5.07;;;;;;;;;;5011116;28;20514;-43
2023/05/19 01:30:22;;;;;;;11.03;5.60;;;;;;;;;;5010667;28;20569;-43
2023/05/19 01:32:48;;;;;;;11.27;5.00;;;;;;;;;;5015795;28;20827;-43
2023/05/19 01:35:15;;;;;;;8.93;5.97;;;;;;;;;;5015157;28;20419;-43
2023/05/19 01:37:42;;;;;;;7.70;5.43;;;;;;;;;;5014896;28;20800;-43
2023/05/19 01:40:08;;;;;;;9.80;4.93;;;;;;;;;;5015087;28;20934;-43
2023/05/19 01:42:36;;;;;;;11.23;5.47;;;;;;;;;;5015119;28;20413;-44
2023/05/19 01:45:09;;;;;;;10.77;5.20;;;;;;;;;;5015161;28;20908;-44
2023/05/19 01:47:37;;;;;;;8.20;4.90;;;;;;;;;;5014596;28;20460;-44
2023/05/19 01:50:03;;;;;;;11.43;5.07;;;;;;;;;;5015030;28;20438;-44
2023/05/19 01:52:29;;;;;;;9.50;6.17;;;;;;;;;;5015229;28;20442;-43
2023/05/19 01:54:55;;;;;;;10.27;6.10;;;;;;;;;;5014858;28;20419;-44
2023/05/19 01:57:31;;;;;;;11.70;6.00;;;;;;;;;;5012927;28;20457;-44
2023/05/19 02:00:06;;;;;;;13.23;6.03;;;;;;;;;;5014924;28;20445;-44
2023/05/19 02:02:52;;;;;;;9.30;5.60;;;;;;;;;;5014722;28;20477;-44
2023/05/19 02:05:31;;;;;;;11.83;5.67;;;;;;;;;;5015269;28;20488;-43
2023/05/19 02:08:06;;;;;;;10.27;6.03;;;;;;;;;;5006564;28;20434;-43
2023/05/19 02:10:32;;;;;;;8.60;5.53;;;;;;;;;;5014550;28;20410;-43
2023/05/19 02:13:00;;;;;;;8.27;5.30;;;;;;;;;;5014589;28;20858;-44
2023/05/19 02:15:29;;;;;;;8.90;5.00;;;;;;;;;;5014587;28;20418;-43
2023/05/19 02:17:58;;;;;;;8.27;5.80;;;;;;;;;;5014136;28;20427;-43
2023/05/19 02:20:25;;;;;;;8.17;6.13;;;;;;;;;;5014507;28;20412;-44
2023/05/19 02:22:51;;;;;;;8.53;5.70;;;;;;;;;;5013377;28;20527;-44
2023/05/19 02:25:17;;;;;;;8.30;6.23;;;;;;;;;;5013560;28;20919;-44
2023/05/19 02:27:43;;;;;;;9.13;5.70;;;;;;;;;;5014120;28;20528;-43
2023/05/19 02:30:09;;;;;;;11.93;5.53;;;;;;;;;;5014343;28;20903;-44
2023/05/19 02:32:35;;;;;;;8.23;6.27;;;;;;;;;;5018588;28;20825;-44
2023/05/19 02:35:01;;;;;;;6.73;5.40;;;;;;;;;;5014229;28;20424;-44
2023/05/19 02:37:28;;;;;;;13.40;6.77;;;;;;;;;;5013923;28;20485;-44
2023/05/19 02:39:54;;;;;;;7.93;5.90;;;;;;;;;;5013837;28;20799;-43
2023/05/19 02:42:20;;;;;;;10.53;6.37;;;;;;;;;;5012990;28;20422;-44
2023/05/19 02:44:46;;;;;;;9.57;6.70;;;;;;;;;;5014123;28;20462;-44
2023/05/19 02:47:12;;;;;;;7.70;6.17;;;;;;;;;;5012789;28;20969;-44
2023/05/19 02:49:38;;;;;;;7.07;5.87;;;;;;;;;;5013875;28;20422;-44
2023/05/19 02:52:05;;;;;;;17.87;6.50;;;;;;;;;;5013934;28;20976;-44
2023/05/19 02:54:32;;;;;;;6.63;5.77;;;;;;;;;;5013632;28;20431;-44
2023/05/19 02:56:58;;;;;;;12.30;5.43;;;;;;;;;;5010158;28;20452;-44
2023/05/19 02:59:24;;;;;;;8.40;5.83;;;;;;;;;;5017291;28;20502;-44
2023/05/19 03:01:52;;;;;;;8.93;6.23;;;;;;;;;;5016784;28;20495;-44
2023/05/19 03:04:18;;;;;;;11.07;6.20;;;;;;;;;;5013696;28;20884;-44
2023/05/19 03:06:45;;;;;;;10.90;5.07;;;;;;;;;;5012876;28;20433;-44
2023/05/19 03:09:12;;;;;;;8.23;6.43;;;;;;;;;;5013584;28;20452;-44
2023/05/19 03:11:38;;;;;;;9.47;5.57;;;;;;;;;;5011169;28;20971;-44
2023/05/19 03:14:04;;;;;;;8.97;6.03;;;;;;;;;;5012930;28;20426;-45
2023/05/19 03:16:31;;;;;;;6.53;5.80;;;;;;;;;;5013081;28;20424;-43
2023/05/19 03:18:57;;;;;;;14.87;5.50;;;;;;;;;;5013415;28;20761;-44
2023/05/19 03:21:23;;;;;;;10.17;7.00;;;;;;;;;;5013212;28;20437;-44
2023/05/19 03:23:49;;;;;;;8.63;6.60;;;;;;;;;;5013319;28;20949;-44
2023/05/19 03:26:15;;;;;;;11.90;6.10;;;;;;;;;;5012892;28;20889;-44
2023/05/19 03:28:41;;;;;;;13.87;6.07;;;;;;;;;;5013187;28;20408;-44
2023/05/19 03:31:07;;;;;;;10.60;5.73;;;;;;;;;;5013198;28;20414;-44
2023/05/19 03:33:33;;;;;;;14.23;6.50;;;;;;;;;;5013050;28;20420;-44
2023/05/19 03:35:59;;;;;;;9.63;6.20;;;;;;;;;;5012673;28;20511;-43
2023/05/19 03:38:25;;;;;;;8.87;6.33;;;;;;;;;;5013017;28;20803;-44
2023/05/19 03:40:52;;;;;;;17.73;6.13;;;;;;;;;;5011719;28;20587;-44
2023/05/19 03:43:18;;;;;;;12.70;6.93;;;;;;;;;;5012034;28;20463;-44
2023/05/19 03:45:44;;;;;;;10.77;6.00;;;;;;;;;;5011797;28;20905;-44
2023/05/19 03:48:11;;;;;;;13.13;6.40;;;;;;;;;;5012589;28;20435;-44
2023/05/19 03:50:37;;;;;;;10.73;6.47;;;;;;;;;;5012604;28;20486;-44
2023/05/19 03:53:03;;;;;;;10.63;5.50;;;;;;;;;;5013030;28;20920;-44
2023/05/19 03:55:29;;;;;;;8.20;6.57;;;;;;;;;;5012393;28;20412;-44
2023/05/19 03:57:55;;;;;;;14.17;6.63;;;;;;;;;;5012277;28;20432;-44
2023/05/19 04:00:22;;;;;;;9.63;5.90;;;;;;;;;;5012774;28;20914;-44
2023/05/19 04:02:48;;;;;;;9.53;6.00;;;;;;;;;;5013021;28;20768;-44
2023/05/19 04:05:14;;;;;;;8.30;5.87;;;;;;;;;;5012368;28;20474;-43
2023/05/19 04:07:41;;;;;;;12.70;6.70;;;;;;;;;;5012103;28;20443;-44
2023/05/19 04:10:07;;;;;;;9.67;6.87;;;;;;;;;;5011688;28;20919;-44
2023/05/19 04:12:33;;;;;;;9.57;7.10;;;;;;;;;;5011743;28;20467;-43
2023/05/19 04:14:59;;;;;;;12.20;6.30;;;;;;;;;;5012348;28;20412;-44
2023/05/19 04:17:26;;;;;;;9.23;6.97;;;;;;;;;;5012061;28;20535;-44
2023/05/19 04:19:52;;;;;;;9.20;6.57;;;;;;;;;;5012131;28;20422;-44
2023/05/19 04:22:18;;;;;;;8.33;7.10;;;;;;;;;;5012446;28;20411;-44
2023/05/19 04:24:45;;;;;;;8.43;6.97;;;;;;;;;;5012032;28;20548;-44
2023/05/19 04:27:12;;;;;;;9.57;6.80;;;;;;;;;;5011910;28;20432;-44
2023/05/19 04:29:39;;;;;;;12.17;7.17;;;;;;;;;;5012137;28;20424;-44
2023/05/19 04:32:05;;;;;;;10.87;7.80;;;;;;;;;;5017148;28;20906;-44
2023/05/19 04:34:32;;;;;;;18.73;7.50;;;;;;;;;;5011916;28;20422;-44
2023/05/19 04:36:58;;;;;;;17.83;7.67;;;;;;;;;;5011859;28;20492;-44
2023/05/19 04:39:24;;;;;;;17.87;8.33;;;;;;;;;;5012503;28;20441;-43
2023/05/19 04:41:50;;;;;;;9.73;7.50;;;;;;;;;;5010873;28;20846;-44
2023/05/19 04:44:16;;;;;;;14.10;8.00;;;;;;;;;;5011260;28;20487;-43
2023/05/19 04:46:44;;;;;;;13.57;7.40;;;;;;;;;;5011526;28;20441;-44
2023/05/19 04:49:11;;;;;;;16.50;9.27;;;;;;;;;;5011892;28;20400;-43
2023/05/19 04:51:40;;;;;;;13.00;8.13;;;;;;;;;;5012049;28;20791;-42
2023/05/19 04:54:06;;;;;;;9.23;6.53;;;;;;;;;;5011797;28;20417;-42
2023/05/19 04:56:32;;;;;;;12.47;7.30;;;;;;;;;;5011391;28;20446;-43
2023/05/19 04:58:58;;;;;;;10.10;7.60;;;;;;;;;;5011959;28;20416;-42
2023/05/19 05:01:24;;;;;;;11.30;7.37;;;;;;;;;;5011741;28;20424;-44
2023/05/19 05:03:53;;;;;;;12.17;7.20;;;;;;;;;;5011709;28;21258;-43
2023/05/19 05:06:20;;;;;;;11.87;7.30;;;;;;;;;;5013224;28;20419;-44
2023/05/19 05:08:46;;;;;;;9.10;7.03;;;;;;;;;;5015710;28;20442;-43
2023/05/19 05:11:12;;;;;;;11.83;7.67;;;;;;;;;;5014947;28;20422;-44
2023/05/19 05:13:39;;;;;;;13.87;6.97;;;;;;;;;;5015686;28;20422;-43
2023/05/19 05:16:05;;;;;;;12.70;7.40;;;;;;;;;;5015267;28;20538;-44
2023/05/19 05:18:31;;;;;;;12.60;7.40;;;;;;;;;;5015586;28;20504;-43
2023/05/19 05:20:57;;;;;;;11.17;7.00;;;;;;;;;;5015568;28;20422;-43
2023/05/19 05:23:23;;;;;;;9.97;7.20;;;;;;;;;;5015595;28;20495;-42
2023/05/19 05:25:49;;;;;;;7.73;6.10;;;;;;;;;;5015364;28;20449;-43
2023/05/19 05:28:15;;;;;;;8.80;6.50;;;;;;;;;;5015296;28;20442;-43
2023/05/19 05:30:42;;;;;;;8.00;6.57;;;;;;;;;;5015275;28;20419;-44
2023/05/19 05:33:08;;;;;;;10.50;6.90;;;;;;;;;;5016957;28;20457;-42
2023/05/19 05:35:34;;;;;;;9.17;6.30;;;;;;;;;;5015189;28;20433;-43
2023/05/19 05:38:01;;;;;;;9.60;6.63;;;;;;;;;;5014898;28;20435;-44
2023/05/19 05:40:27;;;;;;;10.60;6.30;;;;;;;;;;5014289;28;20435;-43
2023/05/19 05:42:54;;;;;;;12.67;6.40;;;;;;;;;;5015110;28;20407;-43
2023/05/19 05:45:21;;;;;;;9.80;6.33;;;;;;;;;;5015042;28;20774;-43
2023/05/19 05:47:47;;;;;;;12.93;6.60;;;;;;;;;;5014898;28;20423;-43
2023/05/19 05:50:13;;;;;;;10.80;6.83;;;;;;;;;;5015060;28;20406;-44
2023/05/19 05:52:41;;;;;;;11.70;6.93;;;;;;;;;;5014879;28;20415;-43
2023/05/19 05:55:07;;;;;;;12.73;7.50;;;;;;;;;;5015315;28;20922;-44
2023/05/19 05:57:35;;;;;;;9.57;7.20;;;;;;;;;;5014457;28;20445;-44
2023/05/19 06:00:01;;;;;;;9.40;7.30;;;;;;;;;;5015623;28;20411;-44
2023/05/19 06:02:27;;;;;;;11.67;7.03;;;;;;;;;;5014856;28;20421;-44
2023/05/19 06:04:53;;;;;;;7.93;7.10;;;;;;;;;;5014694;28;20546;-44
2023/05/19 06:07:19;;;;;;;11.23;7.60;;;;;;;;;;5014436;28;20422;-44
2023/05/19 06:09:45;;;;;;;14.00;7.43;;;;;;;;;;5014665;28;20426;-44
2023/05/19 06:12:11;;;;;;;10.90;6.97;;;;;;;;;;5012539;28;20510;-44
2023/05/19 06:14:37;;;;;;;11.40;7.13;;;;;;;;;;5014444;28;20430;-44
2023/05/19 06:17:03;;;;;;;14.23;6.07;;;;;;;;;;5014088;28;20522;-44
2023/05/19 06:19:30;;;;;;;9.97;6.90;;;;;;;;;;5014692;28;20530;-44
2023/05/19 06:21:56;;;;;;;7.70;6.70;;;;;;;;;;5014390;28;20443;-44
2023/05/19 06:24:22;;;;;;;12.57;5.83;;;;;;;;;;5014573;28;20532;-44
2023/05/19 06:26:48;;;;;;;9.37;6.30;;;;;;;;;;5013859;28;20505;-44
2023/05/19 06:29:14;;;;;;;8.17;6.17;;;;;;;;;;5014369;28;20447;-44
2023/05/19 06:31:40;;;;;;;8.30;4.93;;;;;;;;;;5018655;28;20466;-44
2023/05/19 06:34:06;;;;;;;11.00;5.00;;;;;;;;;;5013454;28;20416;-44
2023/05/19 06:36:34;;;;;;;5.80;4.50;;;;;;;;;;5013358;28;20524;-44
2023/05/19 06:38:59;;;;;;;11.70;4.53;;;;;;;;;;5013444;28;20444;-44
2023/05/19 06:41:26;;;;;;;10.23;4.57;;;;;;;;;;5012725;28;20431;-44
2023/05/19 06:43:51;;;;;;;9.67;4.80;;;;;;;;;;5012833;28;20973;-44
2023/05/19 06:46:17;;;;;;;7.13;5.27;;;;;;;;;;5013342;28;20424;-44
2023/05/19 06:48:43;;;;;;;7.00;4.40;;;;;;;;;;5013090;28;20820;-44
2023/05/19 06:51:09;;;;;;;6.87;4.20;;;;;;;;;;5013533;28;20414;-44
2023/05/19 06:53:35;;;;;;;6.50;4.47;;;;;;;;;;5013390;28;20499;-44
2023/05/19 06:56:01;;;;;;;7.83;4.73;;;;;;;;;;5013010;28;20420;-44
2023/05/19 06:58:27;;;;;;;5.50;4.73;;;;;;;;;;5013448;28;20559;-44
2023/05/19 07:00:53;;;;;;;5.03;4.53;;;;;;;;;;5013319;28;20491;-44
2023/05/19 07:03:19;;;;;;;12.73;5.00;;;;;;;;;;5008183;28;20454;-44
2023/05/19 07:05:46;;;;;;;6.53;3.80;;;;;;;;;;5018008;28;20418;-44
2023/05/19 07:08:12;;;;;;;6.33;4.30;;;;;;;;;;5016485;28;20499;-44
2023/05/19 07:10:38;;;;;;;7.83;4.40;;;;;;;;;;5016539;28;20517;-43
2023/05/19 07:13:04;;;;;;;7.33;5.00;;;;;;;;;;5014011;28;20519;-44
2023/05/19 07:15:30;;;;;;;11.37;4.63;;;;;;;;;;5012572;28;20425;-44
2023/05/19 07:17:57;;;;;;;10.30;4.90;;;;;;;;;;5012993;28;20423;-44
2023/05/19 07:20:23;;;;;;;6.93;4.27;;;;;;;;;;5016137;28;20759;-44
2023/05/19 07:22:49;;;;;;;10.27;4.60;;;;;;;;;;5014090;28;20421;-44
2023/05/19 07:25:15;;;;;;;5.30;4.07;;;;;;;;;;5013056;28;21022;-44
2023/05/19 07:27:41;;;;;;;4.83;4.10;;;;;;;;;;5012742;28;20441;-44
2023/05/19 07:30:07;;;;;;;8.27;4.77;;;;;;;;;;5012697;28;20486;-44
2023/05/19 07:32:33;;;;;;;7.93;4.20;;;;;;;;;;5013156;28;20407;-44
2023/05/19 07:34:59;;;;;;;8.40;4.87;;;;;;;;;;5013059;28;20403;-44
2023/05/19 07:37:25;;;;;;;6.53;4.43;;;;;;;;;;5012687;28;20414;-44
2023/05/19 07:39:51;;;;;;;6.10;4.90;;;;;;;;;;5012755;28;21214;-43
2023/05/19 07:42:17;;;;;;;6.90;4.30;;;;;;;;;;5010493;28;20408;-44
2023/05/19 07:44:43;;;;;;;7.63;3.80;;;;;;;;;;5011515;28;20497;-44
2023/05/19 07:47:09;;;;;;;6.80;4.77;;;;;;;;;;5012479;28;20482;-44
2023/05/19 07:49:35;;;;;;;8.60;5.13;;;;;;;;;;5012808;28;20432;-45
2023/05/19 07:52:01;;;;;;;5.23;3.80;;;;;;;;;;5012845;28;20903;-44
2023/05/19 07:54:27;;;;;;;7.37;3.90;;;;;;;;;;5012885;28;20395;-43
2023/05/19 07:56:53;;;;;;;9.67;4.03;;;;;;;;;;5014945;28;20536;-43
2023/05/19 07:59:19;;;;;;;9.40;4.00;;;;;;;;;;5017651;28;20420;-44
2023/05/19 08:01:45;;;;;;;5.17;3.50;;;;;;;;;;5012458;28;20428;-44
2023/05/19 08:04:11;;;;;;;6.77;3.80;;;;;;;;;;5012528;28;20542;-43
2023/05/19 08:06:37;;;;;;;5.37;3.27;;;;;;;;;;5010809;28;20395;-43
2023/05/19 08:09:04;;;;;;;4.03;3.00;;;;;;;;;;5012393;28;20414;-43
2023/05/19 08:11:30;;;;;;;3.43;3.07;;;;;;;;;;5008685;28;20798;-44
2023/05/19 08:13:56;;;;;;;8.17;3.20;;;;;;;;;;5010752;28;20408;-44
2023/05/19 08:16:23;;;;;;;6.47;3.67;;;;;;;;;;5007572;28;21088;-44
2023/05/19 08:18:49;;;;;;;5.03;3.10;;;;;;;;;;5015869;28;20997;-43
2023/05/19 08:21:15;;;;;;;3.03;2.60;;;;;;;;;;5012390;28;20487;-43
2023/05/19 08:23:41;;;;;;;4.70;2.93;;;;;;;;;;5016187;28;20967;-43
2023/05/19 08:26:07;;;;;;;4.87;2.90;;;;;;;;;;5011809;28;20470;-44
2023/05/19 08:28:33;;;;;;;3.03;2.40;;;;;;;;;;5011766;28;20405;-44
2023/05/19 08:30:59;;;;;;;4.30;2.97;;;;;;;;;;5009958;28;20816;-43
2023/05/19 08:33:25;;;;;;;5.43;2.40;;;;;;;;;;5012039;28;20414;-44
2023/05/19 08:35:51;;;;;;;6.33;2.90;;;;;;;;;;5011747;28;20503;-44
2023/05/19 08:38:17;;;;;;;7.00;2.53;;;;;;;;;;5011526;28;20439;-45
2023/05/19 08:40:46;;;;;;;4.90;2.70;;;;;;;;;;5009350;28;20826;-45
2023/05/19 08:43:12;;;;;;;5.27;2.53;;;;;;;;;;5008755;28;20436;-44
2023/05/19 08:45:39;;;;;;;5.13;2.77;;;;;;;;;;5010999;28;20447;-43
2023/05/19 08:48:05;;;;;;;5.17;2.27;;;;;;;;;;5010423;28;20443;-43
2023/05/19 08:50:35;;;;;;;5.47;2.47;;;;;;;;;;5011888;28;20415;-43
2023/05/19 08:53:08;;;;;;;2.93;2.20;;;;;;;;;;5011746;28;20410;-44
2023/05/19 08:55:38;;;;;;;6.00;3.30;;;;;;;;;;5011917;28;20908;-45
2023/05/19 08:58:04;;;;;;;4.80;2.77;;;;;;;;;;5011534;28;20431;-44
2023/05/19 09:00:31;;;;;;;3.50;2.47;;;;;;;;;;5010838;28;20858;-44
2023/05/19 09:02:59;;;;;;;5.07;2.97;;;;;;;;;;5011742;28;20418;-44
2023/05/19 09:05:25;;;;;;;8.83;2.83;;;;;;;;;;5011547;28;20470;-45
2023/05/19 09:07:51;;;;;;;5.17;2.33;;;;;;;;;;5010079;28;20534;-43
2023/05/19 09:10:17;;;;;;;5.83;2.63;;;;;;;;;;5011759;28;20423;-43
2023/05/19 09:12:47;;;;;;;6.03;2.23;;;;;;;;;;5011111;28;20431;-43
2023/05/19 09:15:16;;;;;;;3.43;2.17;;;;;;;;;;5011032;28;20939;-43
2023/05/19 09:17:43;;;;;;;4.10;2.17;;;;;;;;;;4991759;28;20427;-44
2023/05/19 09:20:13;;;;;;;2.10;1.90;;;;;;;;;;5008303;28;20835;-44
2023/05/19 09:22:44;;;;;;;2.50;2.00;;;;;;;;;;5011992;28;20495;-43
2023/05/19 09:25:22;;;;;;;6.07;2.17;;;;;;;;;;5011414;28;20463;-43
2023/05/19 09:27:49;;;;;;;3.73;2.40;;;;;;;;;;5011123;28;20494;-44
2023/05/19 09:30:16;;;;;;;4.37;2.20;;;;;;;;;;5011312;28;20414;-45
2023/05/19 09:32:42;;;;;;;5.93;2.20;;;;;;;;;;5015790;28;20451;-43
2023/05/19 09:35:08;;;;;;;4.53;2.00;;;;;;;;;;5011310;28;20501;-44
2023/05/19 09:37:34;;;;;;;2.97;2.00;;;;;;;;;;5011288;28;20511;-44
2023/05/19 09:40:00;;;;;;;12.03;1.90;;;;;;;;;;5011478;28;20493;-44
2023/05/19 09:42:28;;;;;;;2.53;1.87;;;;;;;;;;5009932;28;21072;-43
2023/05/19 09:45:01;;;;;;;10.10;1.97;;;;;;;;;;5011232;28;20805;-44
2023/05/19 09:47:27;;;;;;;4.00;2.00;;;;;;;;;;5011046;28;20442;-44
2023/05/19 09:49:53;;;;;;;2.80;1.77;;;;;;;;;;5010399;28;20426;-44
2023/05/19 09:52:20;;;;;;;2.50;1.90;;;;;;;;;;5011056;28;20419;-44
2023/05/19 09:54:47;;;;;;;6.60;2.33;;;;;;;;;;5013424;28;20447;-45
2023/05/19 09:57:13;;;;;;;3.70;1.93;;;;;;;;;;5013815;28;20982;-44
2023/05/19 09:59:40;;;;;;;3.20;2.30;;;;;;;;;;5011441;28;20522;-44
2023/05/19 10:02:08;;;;;;;4.43;1.83;;;;;;;;;;5014690;28;20737;-44
2023/05/19 10:04:35;;;;;;;5.40;2.00;;;;;;;;;;5014565;28;20470;-44
2023/05/19 10:07:04;;;;;;;4.13;1.73;;;;;;;;;;5014391;28;20523;-44
2023/05/19 10:09:30;;;;;;;3.50;1.73;;;;;;;;;;5014753;28;20430;-45
2023/05/19 10:11:56;;;;;;;6.93;1.80;;;;;;;;;;5013820;28;20434;-44
2023/05/19 10:14:23;;;;;;;3.93;1.70;;;;;;;;;;5014545;28;20434;-44
2023/05/19 10:16:53;;;;;;;3.93;1.70;;;;;;;;;;5014154;28;20465;-44
2023/05/19 10:19:20;;;;;;;3.10;1.87;;;;;;;;;;5009919;28;20415;-44
2023/05/19 10:21:46;;;;;;;5.37;1.90;;;;;;;;;;5014466;28;20414;-45
2023/05/19 10:24:12;;;;;;;7.60;2.73;;;;;;;;;;5014361;28;20458;-43
2023/05/19 10:26:40;;;;;;;7.10;2.10;;;;;;;;;;5013980;28;20934;-44
2023/05/19 10:29:06;;;;;;;3.83;2.23;;;;;;;;;;5014307;28;20414;-44
2023/05/19 10:31:33;;;;;;;8.07;2.63;;;;;;;;;;5018771;28;20425;-44
2023/05/19 10:34:20;;;;;;;4.40;2.20;;;;;;;;;;5014162;28;20511;-46
2023/05/19 10:37:08;;;;;;;5.53;2.20;;;;;;;;;;5013863;28;20434;-44
2023/05/19 10:39:34;;;;;;;2.73;2.00;;;;;;;;;;4994255;28;20475;-45
2023/05/19 10:42:04;;;;;;;3.20;2.27;;;;;;;;;;5013191;28;20478;-44
2023/05/19 10:44:34;;;;;;;2.57;2.00;;;;;;;;;;5012577;28;20473;-45
2023/05/19 10:47:00;;;;;;;7.83;2.83;;;;;;;;;;5011573;28;20485;-45
2023/05/19 10:49:27;;;;;;;4.30;2.27;;;;;;;;;;5013900;28;20407;-45
2023/05/19 10:51:55;;;;;;;2.33;1.70;;;;;;;;;;5013795;28;20458;-45
2023/05/19 10:54:42;;;;;;;4.93;2.00;;;;;;;;;;5013784;28;20415;-45
2023/05/19 10:57:08;;;;;;;5.67;2.00;;;;;;;;;;5007022;28;20423;-45
2023/05/19 10:59:36;;;;;;;4.67;1.90;;;;;;;;;;5013610;28;20403;-45
2023/05/19 11:02:03;;;;;;;3.33;2.30;;;;;;;;;;5013675;28;20484;-45
2023/05/19 11:04:39;;;;;;;7.83;1.97;;;;;;;;;;5012690;28;20802;-45
2023/05/19 11:07:09;;;;;;;5.20;1.83;;;;;;;;;;5006676;28;20430;-45
2023/05/19 11:09:39;;;;;;;2.50;1.60;;;;;;;;;;5013490;28;20477;-45
2023/05/19 11:12:06;;;;;;;3.20;1.93;;;;;;;;;;5012467;28;20427;-45
2023/05/19 11:14:32;;;;;;;6.13;2.00;;;;;;;;;;5012472;28;20435;-45
2023/05/19 11:16:58;;;;;;;4.00;1.83;;;;;;;;;;5013113;28;20442;-45
2023/05/19 11:19:27;;;;;;;5.43;1.90;;;;;;;;;;5013355;28;20419;-45
2023/05/19 11:21:54;;;;;;;5.13;2.10;;;;;;;;;;5013343;28;20419;-45
2023/05/19 11:24:32;;;;;;;2.50;1.60;;;;;;;;;;5012444;28;20461;-45
2023/05/19 11:26:58;;;;;;;4.50;2.10;;;;;;;;;;5012948;28;20423;-45
2023/05/19 11:29:25;;;;;;;2.50;1.93;;;;;;;;;;5013049;28;20423;-45
2023/05/19 11:31:51;;;;;;;4.07;2.00;;;;;;;;;;5017541;28;20176;-44
2023/05/19 11:34:18;;;;;;;3.07;1.80;;;;;;;;;;5013085;28;20415;-45
2023/05/19 11:36:44;;;;;;;3.87;1.77;;;;;;;;;;5012597;28;20493;-45
2023/05/19 11:39:10;;;;;;;9.50;2.20;;;;;;;;;;5012955;28;20476;-45
2023/05/19 11:41:40;;;;;;;6.43;1.93;;;;;;;;;;5012790;28;20418;-45
2023/05/19 11:44:10;;;;;;;5.07;2.00;;;;;;;;;;5012598;28;20565;-45
2023/05/19 11:46:36;;;;;;;4.23;1.80;;;;;;;;;;5011644;28;20522;-45
2023/05/19 11:49:04;;;;;;;4.63;2.20;;;;;;;;;;5013059;28;20895;-44
2023/05/19 11:51:31;;;;;;;5.80;1.87;;;;;;;;;;5012792;28;20782;-45
2023/05/19 11:53:57;;;;;;;3.37;2.20;;;;;;;;;;5008227;28;20410;-45
2023/05/19 11:56:23;;;;;;;3.37;2.20;;;;;;;;;;5012295;28;20907;-45
2023/05/19 11:58:52;;;;;;;2.23;1.83;;;;;;;;;;5012615;28;20426;-44
2023/05/19 12:01:18;;;;;;;2.67;2.13;;;;;;;;;;5012933;28;20430;-45
2023/05/19 12:03:45;;;;;;;6.43;2.73;;;;;;;;;;5012704;28;20454;-44
2023/05/19 12:06:12;;;;;;;3.87;1.90;;;;;;;;;;5012253;28;20486;-45
2023/05/19 12:08:39;;;;;;;3.97;1.90;;;;;;;;;;5012414;28;20406;-45
2023/05/19 12:11:06;;;;;;;2.90;1.93;;;;;;;;;;5012595;28;20406;-45
2023/05/19 12:13:32;;;;;;;4.40;1.73;;;;;;;;;;5011227;28;20530;-45
2023/05/19 12:16:00;;;;;;;3.13;1.70;;;;;;;;;;5012162;28;20965;-44
2023/05/19 12:18:29;;;;;;;4.30;1.83;;;;;;;;;;5012239;28;20434;-45
2023/05/19 12:20:55;;;;;;;5.73;1.83;;;;;;;;;;5011214;28;20501;-45
2023/05/19 12:23:21;;;;;;;5.77;2.10;;;;;;;;;;5005135;28;21043;-45
2023/05/19 12:25:47;;;;;;;3.83;2.37;;;;;;;;;;5007743;28;20577;-45
2023/05/19 12:28:15;;;;;;;6.80;2.30;;;;;;;;;;5010023;28;20513;-45
2023/05/19 12:30:46;;;;;;;5.13;1.60;;;;;;;;;;5009968;28;20425;-45
2023/05/19 12:33:14;;;;;;;2.47;1.50;;;;;;;;;;5012454;28;20465;-45
2023/05/19 12:35:41;;;;;;;3.53;1.57;;;;;;;;;;5009655;28;20832;-45
2023/05/19 12:38:07;;;;;;;3.00;1.63;;;;;;;;;;5010883;28;20439;-45
2023/05/19 12:40:34;;;;;;;3.87;1.70;;;;;;;;;;5011581;28;20866;-45
2023/05/19 12:43:00;;;;;;;3.40;1.90;;;;;;;;;;5011074;28;20419;-45
2023/05/19 12:45:27;;;;;;;3.33;1.97;;;;;;;;;;5010798;28;20466;-45
2023/05/19 12:47:53;;;;;;;3.80;1.50;;;;;;;;;;5011486;28;20427;-45
2023/05/19 12:50:19;;;;;;;4.33;2.00;;;;;;;;;;5011847;28;20426;-45
2023/05/19 12:52:46;;;;;;;6.23;1.70;;;;;;;;;;5011796;28;20708;-45
2023/05/19 12:55:13;;;;;;;2.20;1.40;;;;;;;;;;5011723;28;20413;-45
2023/05/19 12:57:39;;;;;;;7.50;2.30;;;;;;;;;;5011370;28;20484;-45
2023/05/19 13:00:09;;;;;;;3.37;2.07;;;;;;;;;;5011840;28;20457;-45
2023/05/19 13:02:36;;;;;;;2.80;1.50;;;;;;;;;;5011613;28;20913;-45
2023/05/19 13:05:03;;;;;;;3.23;1.70;;;;;;;;;;5011670;28;20601;-45
2023/05/19 13:07:29;;;;;;;2.77;2.20;;;;;;;;;;5011496;28;20442;-45
2023/05/19 13:09:55;;;;;;;2.77;1.67;;;;;;;;;;5012071;28;20423;-45
2023/05/19 13:12:21;;;;;;;2.60;1.53;;;;;;;;;;5010942;28;20431;-45
2023/05/19 13:14:47;;;;;;;2.00;1.50;;;;;;;;;;5010769;28;20437;-45
2023/05/19 13:17:13;;;;;;;2.27;1.80;;;;;;;;;;5011281;28;20438;-45
2023/05/19 13:19:39;;;;;;;3.67;1.83;;;;;;;;;;5011565;28;20187;-45
2023/05/19 13:22:05;;;;;;;2.20;1.60;;;;;;;;;;5011604;28;20438;-45
2023/05/19 13:24:31;;;;;;;2.77;1.50;;;;;;;;;;5011621;28;20695;-45
2023/05/19 13:26:57;;;;;;;2.93;1.83;;;;;;;;;;5012299;28;20437;-45
2023/05/19 13:29:23;;;;;;;4.70;1.80;;;;;;;;;;5016050;28;20751;-45
2023/05/19 13:31:49;;;;;;;3.90;1.57;;;;;;;;;;5019493;28;20517;-45
2023/05/19 13:34:15;;;;;;;2.67;1.60;;;;;;;;;;5015297;28;20188;-45
2023/05/19 13:36:46;;;;;;;3.90;1.67;;;;;;;;;;5015489;28;20253;-45
2023/05/19 13:39:12;;;;;;;1.97;1.80;;;;;;;;;;5015396;28;20591;-45
2023/05/19 13:41:38;;;;;;;3.80;1.57;;;;;;;;;;5015107;28;20407;-46
2023/05/19 13:44:04;;;;;;;5.00;2.27;;;;;;;;;;5014218;28;20469;-45
2023/05/19 13:46:30;;;;;;;2.73;1.87;;;;;;;;;;5013983;28;20211;-45
2023/05/19 13:48:56;;;;;;;1.83;1.50;;;;;;;;;;5015200;28;20441;-45
2023/05/19 13:51:22;;;;;;;2.83;1.70;;;;;;;;;;5015081;28;20176;-45
2023/05/19 13:53:48;;;;;;;3.00;1.63;;;;;;;;;;5015009;28;20188;-45
2023/05/19 13:56:14;;;;;;;3.43;1.60;;;;;;;;;;5014640;28;20211;-45
2023/05/19 13:58:40;;;;;;;2.50;1.50;;;;;;;;;;5014779;28;20514;-45
2023/05/19 14:01:06;;;;;;;1.97;1.83;;;;;;;;;;5014945;28;20920;-45
2023/05/19 14:03:32;;;;;;;2.10;1.63;;;;;;;;;;5014709;28;20407;-45
2023/05/19 14:05:58;;;;;;;4.07;1.70;;;;;;;;;;5014697;28;20760;-45
2023/05/19 14:08:24;;;;;;;1.97;1.47;;;;;;;;;;5014734;28;20192;-45
2023/05/19 14:10:51;;;;;;;1.83;1.50;;;;;;;;;;5014680;28;20419;-45
2023/05/19 14:13:17;;;;;;;2.30;1.80;;;;;;;;;;5013676;28;20477;-45
2023/05/19 14:15:43;;;;;;;3.10;1.63;;;;;;;;;;5014571;28;20419;-45
2023/05/19 14:18:09;;;;;;;2.40;1.53;;;;;;;;;;5014210;28;20427;-45
2023/05/19 14:20:35;;;;;;;2.30;1.57;;;;;;;;;;5014569;28;20888;-45
2023/05/19 14:23:00;;;;;;;2.83;1.60;;;;;;;;;;5014562;28;20183;-45
2023/05/19 14:25:26;;;;;;;2.00;1.83;;;;;;;;;;5014406;28;20826;-45
2023/05/19 14:27:52;;;;;;;3.83;2.30;;;;;;;;;;5013856;28;20543;-45
2023/05/19 14:30:18;;;;;;;2.03;1.83;;;;;;;;;;5014516;28;20179;-45
2023/05/19 14:32:44;;;;;;;2.80;1.70;;;;;;;;;;5018650;28;20470;-45
2023/05/19 14:35:10;;;;;;;4.30;1.70;;;;;;;;;;5014130;28;20446;-45
2023/05/19 14:37:36;;;;;;;5.57;1.63;;;;;;;;;;5013411;28;20282;-45
2023/05/19 14:40:03;;;;;;;7.97;1.73;;;;;;;;;;5013168;28;20419;-45